createdAt,value
2018-09-16T00:01:57.824Z,12.90
2018-09-16T00:04:26.171Z,12.90
2018-09-16T00:06:54.595Z,12.80
2018-09-16T00:09:23.137Z,12.80
2018-09-16T00:11:51.640Z,12.80
2018-09-16T00:14:20.583Z,12.70
2018-09-16T00:16:49.047Z,12.70
2018-09-16T00:19:17.538Z,12.70
2018-09-16T00:21:45.936Z,12.70
2018-09-16T00:24:14.402Z,12.70
2018-09-16T00:26:42.771Z,12.70
2018-09-16T00:29:11.149Z,12.60
2018-09-16T00:31:39.592Z,12.60
2018-09-16T00:34:07.970Z,12.60
2018-09-16T00:36:36.321Z,12.60
2018-09-16T00:39:07.027Z,12.60
2018-09-16T00:41:35.417Z,12.60
2018-09-16T00:44:03.899Z,12.60
2018-09-16T00:46:32.404Z,12.70
2018-09-16T00:49:00.838Z,12.60
2018-09-16T00:51:29.224Z,12.70
2018-09-16T00:53:57.653Z,12.70
2018-09-16T00:56:26.077Z,12.70
2018-09-16T00:58:54.458Z,12.70
2018-09-16T01:01:22.908Z,12.70
2018-09-16T01:03:51.794Z,12.70
2018-09-16T01:06:25.803Z,12.70
2018-09-16T01:08:54.182Z,12.70
2018-09-16T01:11:22.585Z,12.60
2018-09-16T01:13:51.828Z,12.60
2018-09-16T01:16:20.213Z,12.60
2018-09-16T01:18:48.621Z,12.50
2018-09-16T01:21:17.080Z,12.50
2018-09-16T01:23:45.494Z,12.40
2018-09-16T01:26:13.906Z,12.40
2018-09-16T01:28:42.339Z,12.40
2018-09-16T01:31:10.741Z,12.40
2018-09-16T01:33:39.141Z,12.40
2018-09-16T01:36:07.605Z,12.30
2018-09-16T01:38:41.408Z,12.30
2018-09-16T01:41:09.857Z,12.30
2018-09-16T01:43:38.229Z,12.30
2018-09-16T01:46:06.627Z,12.30
2018-09-16T01:48:35.104Z,12.30
2018-09-16T01:51:03.499Z,12.30
2018-09-16T01:53:31.905Z,12.30
2018-09-16T01:56:00.348Z,12.20
2018-09-16T01:58:28.723Z,12.20
2018-09-16T02:00:57.118Z,12.20
2018-09-16T02:03:25.537Z,12.20
2018-09-16T02:05:54.778Z,12.20
2018-09-16T02:08:24.634Z,12.20
2018-09-16T02:10:53.133Z,12.20
2018-09-16T02:13:21.514Z,12.20
2018-09-16T02:15:50.029Z,12.20
2018-09-16T02:18:18.372Z,12.10
2018-09-16T02:20:46.713Z,12.10
2018-09-16T02:23:15.145Z,12.10
2018-09-16T02:25:43.885Z,12.10
2018-09-16T02:28:12.870Z,12.10
2018-09-16T02:30:41.368Z,12.10
2018-09-16T02:33:09.726Z,12.00
2018-09-16T02:35:38.133Z,12.00
2018-09-16T02:38:06.604Z,12.00
2018-09-16T02:40:34.997Z,11.90
2018-09-16T02:43:03.379Z,11.90
2018-09-16T02:45:31.797Z,11.90
2018-09-16T02:48:00.157Z,11.90
2018-09-16T02:50:28.497Z,11.90
2018-09-16T02:52:56.965Z,11.90
2018-09-16T02:55:25.360Z,11.90
2018-09-16T02:57:53.756Z,11.90
2018-09-16T03:00:22.332Z,11.90
2018-09-16T03:02:50.710Z,11.80
2018-09-16T03:05:24.394Z,11.80
2018-09-16T03:07:53.426Z,11.80
2018-09-16T03:10:21.814Z,11.90
2018-09-16T03:12:50.227Z,11.90
2018-09-16T03:15:18.625Z,12.00
2018-09-16T03:17:47.022Z,12.00
2018-09-16T03:20:15.456Z,12.00
2018-09-16T03:22:43.825Z,12.10
2018-09-16T03:25:12.202Z,12.10
2018-09-16T03:27:40.668Z,12.10
2018-09-16T03:30:09.049Z,12.20
2018-09-16T03:32:37.426Z,12.20
2018-09-16T03:35:05.892Z,12.20
2018-09-16T03:37:34.375Z,12.20
2018-09-16T03:40:02.717Z,12.20
2018-09-16T03:42:31.188Z,12.30
2018-09-16T03:44:59.608Z,12.30
2018-09-16T03:47:27.968Z,12.30
2018-09-16T03:49:56.436Z,12.30
2018-09-16T03:52:24.779Z,12.30
2018-09-16T03:54:54.075Z,12.30
2018-09-16T03:57:22.480Z,12.30
2018-09-16T03:59:50.889Z,12.30
2018-09-16T04:02:19.329Z,12.20
2018-09-16T04:04:47.785Z,12.20
2018-09-16T04:07:16.272Z,12.10
2018-09-16T04:09:44.777Z,12.10
2018-09-16T04:12:13.232Z,12.10
2018-09-16T04:14:41.584Z,12.00
2018-09-16T04:17:09.994Z,12.00
2018-09-16T04:19:38.437Z,12.00
2018-09-16T04:22:06.845Z,12.00
2018-09-16T04:24:35.224Z,12.00
2018-09-16T04:27:03.634Z,12.00
2018-09-16T04:29:32.021Z,12.00
2018-09-16T04:32:00.429Z,12.00
2018-09-16T04:34:28.839Z,12.00
2018-09-16T04:36:57.270Z,12.00
2018-09-16T04:39:25.685Z,12.00
2018-09-16T04:41:54.903Z,12.00
2018-09-16T04:44:23.296Z,12.00
2018-09-16T04:46:51.704Z,12.00
2018-09-16T04:49:20.125Z,12.10
2018-09-16T04:51:48.518Z,12.10
2018-09-16T04:54:17.013Z,12.10
2018-09-16T04:56:45.421Z,12.10
2018-09-16T04:59:13.816Z,12.10
2018-09-16T05:01:42.153Z,12.20
2018-09-16T05:04:10.652Z,12.20
2018-09-16T05:06:39.111Z,12.20
2018-09-16T05:09:08.973Z,12.20
2018-09-16T05:11:37.609Z,12.30
2018-09-16T05:14:06.284Z,12.30
2018-09-16T05:16:34.852Z,12.30
2018-09-16T05:19:03.597Z,12.40
2018-09-16T05:21:32.638Z,12.40
2018-09-16T05:24:01.687Z,12.40
2018-09-16T05:26:30.818Z,12.40
2018-09-16T05:28:59.363Z,12.50
2018-09-16T05:31:27.924Z,12.50
2018-09-16T05:33:56.634Z,12.60
2018-09-16T05:36:25.661Z,12.60
2018-09-16T05:38:54.105Z,12.60
2018-09-16T05:41:22.953Z,12.70
2018-09-16T05:43:51.328Z,12.80
2018-09-16T05:46:19.720Z,12.80
2018-09-16T05:48:48.157Z,12.80
2018-09-16T05:51:16.613Z,12.90
2018-09-16T05:53:44.976Z,12.90
2018-09-16T05:56:13.444Z,13.00
2018-09-16T05:58:41.854Z,13.00
2018-09-16T06:01:10.237Z,13.00
2018-09-16T06:03:38.685Z,13.10
2018-09-16T06:06:07.069Z,13.20
2018-09-16T06:08:35.714Z,13.20
2018-09-16T06:11:04.162Z,13.30
2018-09-16T06:13:32.566Z,13.40
2018-09-16T06:16:00.960Z,13.50
2018-09-16T06:18:29.405Z,13.60
2018-09-16T06:20:57.857Z,13.70
2018-09-16T06:23:26.279Z,13.80
2018-09-16T06:25:54.717Z,13.90
2018-09-16T06:28:23.092Z,14.20
2018-09-16T06:30:51.545Z,14.60
2018-09-16T06:33:20.113Z,15.20
2018-09-16T06:35:48.646Z,15.80
2018-09-16T06:38:17.038Z,16.20
2018-09-16T06:40:45.483Z,16.60
2018-09-16T06:43:14.039Z,16.80
2018-09-16T06:45:42.574Z,17.20
2018-09-16T06:48:10.997Z,17.50
2018-09-16T06:50:39.393Z,17.80
2018-09-16T06:53:07.840Z,18.00
2018-09-16T06:55:36.256Z,18.20
2018-09-16T06:58:04.657Z,18.00
2018-09-16T07:00:33.086Z,18.20
2018-09-16T07:03:01.494Z,18.20
2018-09-16T07:05:29.972Z,18.20
2018-09-16T07:07:58.457Z,18.00
2018-09-16T07:10:26.933Z,17.90
2018-09-16T07:12:55.381Z,17.70
2018-09-16T07:15:23.781Z,17.60
2018-09-16T07:17:52.226Z,17.40
2018-09-16T07:20:20.701Z,17.60
2018-09-16T07:22:54.716Z,17.80
2018-09-16T07:25:23.301Z,18.00
2018-09-16T07:27:51.726Z,18.10
2018-09-16T07:30:20.197Z,18.20
2018-09-16T07:32:48.592Z,18.30
2018-09-16T07:35:16.968Z,18.40
2018-09-16T07:37:45.428Z,18.50
2018-09-16T07:40:13.880Z,18.60
2018-09-16T07:42:42.262Z,18.70
2018-09-16T07:45:10.733Z,18.80
2018-09-16T07:47:39.099Z,18.80
2018-09-16T07:50:07.510Z,18.90
2018-09-16T07:52:35.946Z,19.00
2018-09-16T07:55:04.413Z,19.00
2018-09-16T07:57:32.780Z,19.10
2018-09-16T08:00:01.180Z,19.10
2018-09-16T08:02:29.557Z,19.20
2018-09-16T08:04:57.909Z,19.30
2018-09-16T08:07:26.951Z,19.20
2018-09-16T08:09:55.336Z,19.10
2018-09-16T08:12:23.677Z,19.00
2018-09-16T08:14:52.085Z,18.90
2018-09-16T08:17:20.437Z,18.90
2018-09-16T08:19:48.813Z,18.90
2018-09-16T08:22:17.232Z,19.00
2018-09-16T08:24:45.613Z,19.20
2018-09-16T08:27:13.982Z,19.30
2018-09-16T08:29:42.402Z,19.40
2018-09-16T08:32:10.789Z,19.50
2018-09-16T08:34:39.206Z,19.80
2018-09-16T08:37:07.610Z,19.90
2018-09-16T08:39:36.085Z,19.90
2018-09-16T08:42:04.465Z,20.10
2018-09-16T08:44:32.901Z,20.20
2018-09-16T08:47:01.240Z,20.40
2018-09-16T08:49:29.590Z,20.60
2018-09-16T08:51:58.035Z,20.60
2018-09-16T08:54:27.300Z,20.60
2018-09-16T08:56:55.704Z,20.50
2018-09-16T08:59:24.130Z,20.70
2018-09-16T09:01:52.514Z,21.00
2018-09-16T09:04:20.919Z,20.90
2018-09-16T09:06:49.301Z,21.20
2018-09-16T09:09:17.665Z,21.40
2018-09-16T09:11:46.024Z,21.60
2018-09-16T09:14:14.488Z,21.70
2018-09-16T09:16:42.905Z,21.70
2018-09-16T09:19:11.268Z,21.80
2018-09-16T09:21:39.661Z,21.80
2018-09-16T09:24:08.416Z,21.50
2018-09-16T09:26:37.089Z,21.30
2018-09-16T09:29:05.577Z,21.30
2018-09-16T09:31:34.051Z,21.30
2018-09-16T09:34:02.425Z,21.50
2018-09-16T09:36:30.852Z,21.50
2018-09-16T09:38:59.237Z,21.50
2018-09-16T09:41:28.249Z,21.40
2018-09-16T09:43:56.702Z,21.40
2018-09-16T09:46:25.062Z,21.40
2018-09-16T09:48:53.454Z,21.50
2018-09-16T09:51:21.857Z,21.50
2018-09-16T09:53:50.241Z,21.60
2018-09-16T09:56:18.626Z,21.70
2018-09-16T09:58:47.102Z,21.80
2018-09-16T10:01:15.461Z,21.80
2018-09-16T10:03:43.890Z,22.00
2018-09-16T10:06:12.406Z,22.10
2018-09-16T10:08:40.793Z,22.10
2018-09-16T10:11:09.244Z,22.30
2018-09-16T10:13:37.689Z,22.10
2018-09-16T10:16:06.076Z,22.30
2018-09-16T10:18:34.541Z,22.10
2018-09-16T10:21:02.994Z,22.10
2018-09-16T10:23:31.376Z,22.00
2018-09-16T10:26:00.401Z,21.90
2018-09-16T10:28:28.816Z,21.90
2018-09-16T10:30:57.250Z,22.00
2018-09-16T10:33:25.612Z,22.10
2018-09-16T10:35:54.063Z,22.30
2018-09-16T10:38:22.496Z,22.30
2018-09-16T10:40:50.853Z,22.10
2018-09-16T10:43:19.317Z,22.10
2018-09-16T10:45:47.777Z,22.20
2018-09-16T10:48:16.171Z,22.00
2018-09-16T10:50:44.617Z,21.90
2018-09-16T10:53:13.000Z,22.00
2018-09-16T10:55:41.386Z,22.00
2018-09-16T10:58:09.801Z,22.10
2018-09-16T11:00:38.197Z,22.30
2018-09-16T11:03:06.581Z,22.10
2018-09-16T11:05:35.037Z,22.20
2018-09-16T11:08:03.478Z,22.00
2018-09-16T11:10:31.933Z,22.00
2018-09-16T11:13:00.944Z,22.10
2018-09-16T11:15:29.357Z,22.00
2018-09-16T11:17:57.770Z,22.20
2018-09-16T11:20:29.185Z,22.40
2018-09-16T11:22:57.589Z,22.30
2018-09-16T11:25:26.012Z,22.10
2018-09-16T11:27:54.510Z,22.10
2018-09-16T11:30:22.887Z,22.20
2018-09-16T11:32:51.264Z,22.20
2018-09-16T11:35:19.723Z,22.20
2018-09-16T11:37:48.114Z,22.20
2018-09-16T11:40:16.522Z,22.10
2018-09-16T11:42:44.979Z,22.00
2018-09-16T11:45:13.321Z,22.20
2018-09-16T11:47:41.697Z,22.30
2018-09-16T11:50:10.145Z,22.10
2018-09-16T11:52:38.532Z,22.10
2018-09-16T11:55:07.362Z,22.20
2018-09-16T11:57:35.881Z,22.20
2018-09-16T12:00:04.436Z,22.30
2018-09-16T12:02:32.834Z,22.30
2018-09-16T12:05:01.894Z,22.20
2018-09-16T12:07:31.337Z,22.10
2018-09-16T12:10:00.026Z,22.10
2018-09-16T12:12:28.482Z,21.90
2018-09-16T12:14:56.874Z,21.90
2018-09-16T12:17:25.260Z,21.70
2018-09-16T12:19:53.696Z,21.70
2018-09-16T12:22:22.077Z,21.70
2018-09-16T12:24:50.453Z,21.70
2018-09-16T12:27:18.897Z,21.60
2018-09-16T12:29:47.293Z,21.60
2018-09-16T12:32:15.688Z,21.50
2018-09-16T12:34:44.161Z,21.40
2018-09-16T12:37:12.556Z,21.30
2018-09-16T12:39:40.921Z,21.40
2018-09-16T12:42:09.416Z,21.40
2018-09-16T12:44:37.785Z,21.40
2018-09-16T12:47:06.202Z,21.30
2018-09-16T12:49:34.701Z,21.40
2018-09-16T12:52:03.097Z,21.50
2018-09-16T12:54:32.517Z,21.60
2018-09-16T12:57:01.134Z,21.70
2018-09-16T12:59:29.523Z,21.70
2018-09-16T13:01:57.913Z,21.60
2018-09-16T13:04:26.426Z,21.60
2018-09-16T13:06:54.817Z,21.50
2018-09-16T13:09:23.272Z,21.30
2018-09-16T13:11:51.751Z,21.20
2018-09-16T13:14:20.172Z,21.20
2018-09-16T13:16:48.571Z,21.20
2018-09-16T13:19:16.998Z,21.20
2018-09-16T13:21:45.392Z,21.20
2018-09-16T13:24:13.782Z,21.10
2018-09-16T13:26:42.255Z,21.00
2018-09-16T13:29:10.642Z,20.90
2018-09-16T13:31:39.005Z,20.90
2018-09-16T13:34:07.463Z,21.00
2018-09-16T13:36:36.789Z,21.10
2018-09-16T13:39:07.894Z,21.10
2018-09-16T13:41:36.265Z,21.20
2018-09-16T13:44:04.675Z,21.10
2018-09-16T13:46:33.340Z,21.20
2018-09-16T13:49:01.773Z,21.20
2018-09-16T13:51:30.181Z,21.40
2018-09-16T13:53:58.612Z,21.30
2018-09-16T13:56:26.999Z,21.40
2018-09-16T13:58:55.422Z,21.40
2018-09-16T14:01:23.841Z,21.30
2018-09-16T14:03:52.233Z,21.40
2018-09-16T14:06:20.628Z,21.30
2018-09-16T14:08:49.041Z,21.30
2018-09-16T14:11:24.101Z,21.30
2018-09-16T14:13:52.593Z,21.30
2018-09-16T14:16:21.000Z,21.40
2018-09-16T14:18:49.374Z,21.40
2018-09-16T14:21:17.805Z,21.50
2018-09-16T14:23:46.228Z,21.40
2018-09-16T14:26:14.603Z,21.50
2018-09-16T14:28:43.045Z,21.50
2018-09-16T14:31:11.432Z,21.50
2018-09-16T14:33:39.870Z,21.50
2018-09-16T14:36:08.334Z,21.60
2018-09-16T14:38:36.758Z,21.70
2018-09-16T14:41:05.138Z,21.60
2018-09-16T14:43:34.308Z,21.50
2018-09-16T14:46:02.733Z,21.40
2018-09-16T14:48:31.114Z,21.30
2018-09-16T14:50:59.581Z,21.20
2018-09-16T14:53:28.025Z,21.20
2018-09-16T14:55:56.445Z,21.10
2018-09-16T14:58:24.887Z,21.00
2018-09-16T15:00:53.324Z,21.00
2018-09-16T15:03:21.689Z,21.00
2018-09-16T15:05:50.137Z,21.00
2018-09-16T15:08:18.845Z,21.00
2018-09-16T15:10:48.270Z,21.10
2018-09-16T15:13:17.312Z,21.10
2018-09-16T15:15:46.146Z,21.10
2018-09-16T15:18:14.521Z,21.20
2018-09-16T15:20:42.969Z,21.20
2018-09-16T15:23:11.337Z,21.30
2018-09-16T15:25:39.768Z,21.30
2018-09-16T15:28:08.199Z,21.30
2018-09-16T15:30:36.617Z,21.30
2018-09-16T15:33:05.177Z,21.40
2018-09-16T15:35:33.604Z,21.30
2018-09-16T15:38:02.019Z,21.40
2018-09-16T15:40:30.393Z,21.30
2018-09-16T15:42:58.844Z,21.30
2018-09-16T15:45:27.281Z,21.30
2018-09-16T15:47:55.653Z,21.30
2018-09-16T15:50:24.113Z,21.20
2018-09-16T15:52:52.532Z,21.20
2018-09-16T15:55:20.954Z,21.20
2018-09-16T15:57:50.900Z,21.30
2018-09-16T16:00:19.464Z,21.30
2018-09-16T16:02:48.173Z,21.20
2018-09-16T16:05:16.621Z,21.00
2018-09-16T16:07:45.120Z,21.00
2018-09-16T16:10:13.631Z,20.90
2018-09-16T16:12:42.183Z,20.80
2018-09-16T16:15:10.569Z,20.70
2018-09-16T16:17:38.953Z,20.70
2018-09-16T16:20:07.406Z,20.60
2018-09-16T16:22:35.929Z,20.60
2018-09-16T16:25:04.526Z,20.50
2018-09-16T16:27:32.950Z,20.50
2018-09-16T16:30:01.333Z,20.50
2018-09-16T16:32:29.742Z,20.50
2018-09-16T16:34:58.176Z,20.40
2018-09-16T16:37:26.590Z,20.40
2018-09-16T16:39:55.010Z,20.40
2018-09-16T16:42:23.477Z,20.30
2018-09-16T16:44:51.897Z,20.30
2018-09-16T16:47:20.286Z,20.30
2018-09-16T16:49:48.842Z,20.20
2018-09-16T16:52:17.325Z,20.20
2018-09-16T16:54:45.680Z,20.20
2018-09-16T16:57:14.309Z,20.20
2018-09-16T16:59:42.769Z,20.20
2018-09-16T17:02:11.181Z,20.10
2018-09-16T17:04:39.685Z,20.10
2018-09-16T17:07:08.117Z,20.10
2018-09-16T17:09:36.512Z,20.10
2018-09-16T17:12:05.008Z,20.10
2018-09-16T17:14:33.507Z,20.10
2018-09-16T17:17:01.901Z,20.00
2018-09-16T17:19:30.453Z,20.00
2018-09-16T17:21:58.882Z,20.00
2018-09-16T17:24:27.302Z,19.90
2018-09-16T17:26:55.805Z,19.80
2018-09-16T17:29:24.250Z,19.80
2018-09-16T17:31:52.752Z,19.70
2018-09-16T17:34:21.228Z,19.60
2018-09-16T17:36:49.638Z,19.60
2018-09-16T17:39:18.031Z,19.50
2018-09-16T17:41:46.491Z,19.40
2018-09-16T17:44:15.051Z,19.30
2018-09-16T17:46:43.469Z,19.20
2018-09-16T17:49:11.976Z,19.20
2018-09-16T17:51:40.462Z,19.10
2018-09-16T17:54:08.977Z,19.10
2018-09-16T17:56:37.565Z,19.00
2018-09-16T17:59:06.005Z,18.90
2018-09-16T18:01:34.358Z,18.90
2018-09-16T18:04:02.824Z,18.80
2018-09-16T18:06:31.321Z,18.80
2018-09-16T18:08:59.723Z,18.70
2018-09-16T18:11:28.161Z,18.60
2018-09-16T18:13:56.644Z,18.50
2018-09-16T18:16:25.053Z,18.50
2018-09-16T18:18:53.526Z,18.50
2018-09-16T18:21:21.949Z,18.40
2018-09-16T18:23:50.361Z,18.30
2018-09-16T18:26:18.854Z,18.30
2018-09-16T18:28:47.271Z,18.20
2018-09-16T18:31:15.756Z,18.20
2018-09-16T18:33:44.295Z,18.10
2018-09-16T18:36:12.887Z,18.10
2018-09-16T18:38:41.341Z,18.10
2018-09-16T18:41:09.853Z,18.00
2018-09-16T18:43:39.169Z,18.00
2018-09-16T18:46:07.674Z,17.90
2018-09-16T18:48:36.141Z,17.90
2018-09-16T18:51:04.533Z,17.80
2018-09-16T18:53:32.949Z,17.70
2018-09-16T18:56:01.448Z,17.70
2018-09-16T18:58:29.866Z,17.70
2018-09-16T19:00:58.249Z,17.60
2018-09-16T19:03:26.682Z,17.60
2018-09-16T19:05:55.069Z,17.50
2018-09-16T19:08:23.553Z,17.50
2018-09-16T19:10:52.010Z,17.50
2018-09-16T19:13:20.428Z,17.40
2018-09-16T19:15:48.950Z,17.40
2018-09-16T19:18:17.425Z,17.30
2018-09-16T19:20:45.897Z,17.30
2018-09-16T19:23:14.608Z,17.30
2018-09-16T19:25:43.271Z,17.30
2018-09-16T19:28:11.637Z,17.30
2018-09-16T19:30:40.113Z,17.30
2018-09-16T19:33:08.550Z,17.30
2018-09-16T19:35:36.974Z,17.30
2018-09-16T19:38:05.609Z,17.20
2018-09-16T19:40:34.072Z,17.20
2018-09-16T19:43:02.481Z,17.20
2018-09-16T19:45:31.209Z,17.10
2018-09-16T19:47:59.678Z,17.10
2018-09-16T19:50:28.145Z,17.00
2018-09-16T19:52:56.634Z,17.00
2018-09-16T19:55:25.125Z,17.00
2018-09-16T19:57:53.521Z,17.00
2018-09-16T20:00:22.003Z,16.90
2018-09-16T20:02:50.444Z,16.80
2018-09-16T20:05:18.853Z,16.80
2018-09-16T20:07:47.309Z,16.80
2018-09-16T20:10:15.801Z,16.70
2018-09-16T20:12:44.321Z,16.70
2018-09-16T20:15:12.762Z,16.70
2018-09-16T20:17:41.197Z,16.70
2018-09-16T20:20:09.652Z,16.70
2018-09-16T20:22:38.010Z,16.70
2018-09-16T20:25:06.462Z,16.60
2018-09-16T20:27:34.853Z,16.60
2018-09-16T20:30:03.333Z,16.60
2018-09-16T20:32:31.758Z,16.60
2018-09-16T20:35:06.783Z,16.60
2018-09-16T20:37:35.239Z,16.60
2018-09-16T20:40:03.708Z,16.60
2018-09-16T20:42:32.160Z,16.60
2018-09-16T20:45:00.964Z,16.60
2018-09-16T20:47:29.407Z,16.70
2018-09-16T20:49:57.868Z,16.70
2018-09-16T20:52:26.341Z,16.70
2018-09-16T20:54:54.730Z,16.70
2018-09-16T20:57:23.132Z,16.60
2018-09-16T20:59:51.596Z,16.60
2018-09-16T21:02:20.007Z,16.60
2018-09-16T21:04:49.528Z,16.60
2018-09-16T21:07:17.987Z,16.60
2018-09-16T21:09:46.452Z,16.60
2018-09-16T21:12:14.927Z,16.50
2018-09-16T21:14:43.378Z,16.50
2018-09-16T21:17:11.887Z,16.50
2018-09-16T21:19:40.284Z,16.40
2018-09-16T21:22:08.721Z,16.40
2018-09-16T21:24:37.101Z,16.40
2018-09-16T21:27:05.517Z,16.40
2018-09-16T21:29:33.953Z,16.40
2018-09-16T21:32:02.406Z,16.30
2018-09-16T21:34:30.825Z,16.30
2018-09-16T21:36:59.305Z,16.20
2018-09-16T21:39:27.725Z,16.20
2018-09-16T21:41:56.129Z,16.10
2018-09-16T21:44:24.600Z,16.10
2018-09-16T21:46:52.991Z,16.10
2018-09-16T21:49:21.393Z,16.10
2018-09-16T21:51:49.840Z,16.10
2018-09-16T21:54:18.261Z,16.10
2018-09-16T21:56:46.677Z,16.10
2018-09-16T21:59:15.675Z,16.10
2018-09-16T22:01:44.076Z,16.10
2018-09-16T22:04:12.530Z,16.10
2018-09-16T22:06:41.129Z,16.10
2018-09-16T22:09:10.544Z,16.10
2018-09-16T22:11:38.974Z,16.10
2018-09-16T22:14:07.588Z,16.10
2018-09-16T22:16:36.189Z,16.10
2018-09-16T22:19:04.604Z,16.10
2018-09-16T22:21:33.073Z,16.10
2018-09-16T22:24:01.472Z,16.20
2018-09-16T22:26:29.918Z,16.20
2018-09-16T22:28:58.360Z,16.20
2018-09-16T22:31:26.738Z,16.20
2018-09-16T22:33:55.124Z,16.20
2018-09-16T22:36:23.573Z,16.20
2018-09-16T22:38:51.959Z,16.20
2018-09-16T22:41:20.418Z,16.20
2018-09-16T22:43:48.885Z,16.10
2018-09-16T22:46:17.264Z,16.10
2018-09-16T22:48:45.925Z,16.10
2018-09-16T22:51:14.371Z,16.10
2018-09-16T22:53:42.933Z,16.00
2018-09-16T22:56:11.438Z,16.00
2018-09-16T22:58:39.897Z,15.90
2018-09-16T23:01:09.150Z,15.90
2018-09-16T23:03:37.575Z,15.80
2018-09-16T23:06:06.143Z,15.80
2018-09-16T23:08:34.562Z,15.70
2018-09-16T23:11:03.056Z,15.70
2018-09-16T23:13:31.537Z,15.60
2018-09-16T23:15:59.989Z,15.60
2018-09-16T23:18:28.451Z,15.50
2018-09-16T23:20:56.902Z,15.50
2018-09-16T23:23:25.349Z,15.50
2018-09-16T23:25:53.803Z,15.40
2018-09-16T23:28:22.265Z,15.40
2018-09-16T23:30:50.669Z,15.40
2018-09-16T23:33:19.805Z,15.30
2018-09-16T23:35:48.280Z,15.30
2018-09-16T23:38:16.769Z,15.30
2018-09-16T23:40:45.168Z,15.20
2018-09-16T23:43:13.616Z,15.20
2018-09-16T23:45:41.988Z,15.10
2018-09-16T23:48:10.413Z,15.10
2018-09-16T23:50:38.841Z,15.00
2018-09-16T23:53:07.240Z,15.00
2018-09-16T23:55:35.705Z,14.90
2018-09-16T23:58:04.145Z,14.90
